sensor_id;sensor_type;location;lat;lon;timestamp;P1;durP1;ratioP1;P2;durP2;ratioP2
78209;SDS011;67485;48.816;9.930;2023-04-03T00:01:30;3.88;;;1.80;;
78209;SDS011;67485;48.816;9.930;2023-04-03T00:03:56;5.50;;;1.80;;
78209;SDS011;67485;48.816;9.930;2023-04-03T00:06:22;5.00;;;1.70;;
78209;SDS011;67485;48.816;9.930;2023-04-03T00:08:49;4.43;;;1.80;;
78209;SDS011;67485;48.816;9.930;2023-04-03T00:11:15;3.85;;;1.85;;
78209;SDS011;67485;48.816;9.930;2023-04-03T00:13:41;4.20;;;1.80;;
78209;SDS011;67485;48.816;9.930;2023-04-03T00:16:08;2.97;;;1.80;;
78209;SDS011;67485;48.816;9.930;2023-04-03T00:18:34;4.28;;;1.60;;
78209;SDS011;67485;48.816;9.930;2023-04-03T00:21:01;2.90;;;1.75;;
78209;SDS011;67485;48.816;9.930;2023-04-03T00:23:26;3.67;;;1.80;;
78209;SDS011;67485;48.816;9.930;2023-04-03T00:25:52;5.00;;;1.73;;
78209;SDS011;67485;48.816;9.930;2023-04-03T00:28:18;3.47;;;1.90;;
78209;SDS011;67485;48.816;9.930;2023-04-03T00:30:44;3.80;;;1.88;;
78209;SDS011;67485;48.816;9.930;2023-04-03T00:33:11;2.72;;;1.50;;
78209;SDS011;67485;48.816;9.930;2023-04-03T00:35:38;4.18;;;1.75;;
78209;SDS011;67485;48.816;9.930;2023-04-03T00:38:03;3.53;;;1.50;;
78209;SDS011;67485;48.816;9.930;2023-04-03T00:40:32;2.97;;;1.70;;
78209;SDS011;67485;48.816;9.930;2023-04-03T00:43:05;4.85;;;1.80;;
78209;SDS011;67485;48.816;9.930;2023-04-03T00:45:40;3.70;;;1.60;;
78209;SDS011;67485;48.816;9.930;2023-04-03T00:48:16;4.13;;;1.88;;
78209;SDS011;67485;48.816;9.930;2023-04-03T00:50:45;3.30;;;1.80;;
78209;SDS011;67485;48.816;9.930;2023-04-03T00:53:17;2.58;;;1.50;;
78209;SDS011;67485;48.816;9.930;2023-04-03T00:55:48;3.78;;;1.83;;
78209;SDS011;67485;48.816;9.930;2023-04-03T00:58:15;3.93;;;1.70;;
78209;SDS011;67485;48.816;9.930;2023-04-03T01:00:46;3.15;;;1.70;;
78209;SDS011;67485;48.816;9.930;2023-04-03T01:03:18;3.83;;;2.00;;
78209;SDS011;67485;48.816;9.930;2023-04-03T01:05:45;3.78;;;1.90;;
78209;SDS011;67485;48.816;9.930;2023-04-03T01:08:15;3.40;;;1.70;;
78209;SDS011;67485;48.816;9.930;2023-04-03T01:10:41;5.00;;;2.22;;
78209;SDS011;67485;48.816;9.930;2023-04-03T01:13:23;3.13;;;1.60;;
78209;SDS011;67485;48.816;9.930;2023-04-03T01:15:59;5.47;;;1.80;;
78209;SDS011;67485;48.816;9.930;2023-04-03T01:18:27;3.63;;;1.77;;
78209;SDS011;67485;48.816;9.930;2023-04-03T01:23:48;3.65;;;1.80;;
78209;SDS011;67485;48.816;9.930;2023-04-03T01:26:31;4.03;;;2.00;;
78209;SDS011;67485;48.816;9.930;2023-04-03T01:28:58;3.97;;;1.80;;
78209;SDS011;67485;48.816;9.930;2023-04-03T01:34:00;7.07;;;2.45;;
78209;SDS011;67485;48.816;9.930;2023-04-03T01:36:30;9.35;;;3.15;;
78209;SDS011;67485;48.816;9.930;2023-04-03T01:38:57;5.78;;;2.30;;
78209;SDS011;67485;48.816;9.930;2023-04-03T01:41:24;4.43;;;2.20;;
78209;SDS011;67485;48.816;9.930;2023-04-03T01:43:54;4.38;;;1.80;;
78209;SDS011;67485;48.816;9.930;2023-04-03T01:46:20;3.15;;;1.75;;
78209;SDS011;67485;48.816;9.930;2023-04-03T01:48:46;4.75;;;1.90;;
78209;SDS011;67485;48.816;9.930;2023-04-03T01:51:12;4.50;;;2.00;;
78209;SDS011;67485;48.816;9.930;2023-04-03T01:53:38;2.85;;;1.40;;
78209;SDS011;67485;48.816;9.930;2023-04-03T01:56:03;4.53;;;1.90;;
78209;SDS011;67485;48.816;9.930;2023-04-03T01:58:31;4.30;;;1.70;;
78209;SDS011;67485;48.816;9.930;2023-04-03T02:00:57;2.67;;;1.58;;
78209;SDS011;67485;48.816;9.930;2023-04-03T02:03:22;5.50;;;1.93;;
78209;SDS011;67485;48.816;9.930;2023-04-03T02:05:49;5.43;;;1.70;;
78209;SDS011;67485;48.816;9.930;2023-04-03T02:08:15;3.95;;;1.85;;
78209;SDS011;67485;48.816;9.930;2023-04-03T02:10:43;3.63;;;1.70;;
78209;SDS011;67485;48.816;9.930;2023-04-03T02:13:11;2.45;;;1.58;;
78209;SDS011;67485;48.816;9.930;2023-04-03T02:15:38;3.67;;;1.75;;
78209;SDS011;67485;48.816;9.930;2023-04-03T02:18:05;3.60;;;1.75;;
78209;SDS011;67485;48.816;9.930;2023-04-03T02:20:31;4.35;;;1.90;;
78209;SDS011;67485;48.816;9.930;2023-04-03T02:22:57;3.25;;;1.77;;
78209;SDS011;67485;48.816;9.930;2023-04-03T02:25:24;3.60;;;1.70;;
78209;SDS011;67485;48.816;9.930;2023-04-03T02:27:50;3.57;;;1.80;;
78209;SDS011;67485;48.816;9.930;2023-04-03T02:30:15;3.95;;;1.52;;
78209;SDS011;67485;48.816;9.930;2023-04-03T02:32:41;3.87;;;1.90;;
78209;SDS011;67485;48.816;9.930;2023-04-03T02:35:08;5.20;;;1.73;;
78209;SDS011;67485;48.816;9.930;2023-04-03T02:37:35;3.28;;;1.70;;
78209;SDS011;67485;48.816;9.930;2023-04-03T02:40:01;3.70;;;1.50;;
78209;SDS011;67485;48.816;9.930;2023-04-03T02:42:27;3.88;;;1.50;;
78209;SDS011;67485;48.816;9.930;2023-04-03T02:44:53;3.95;;;1.80;;
78209;SDS011;67485;48.816;9.930;2023-04-03T02:47:19;4.57;;;1.40;;
78209;SDS011;67485;48.816;9.930;2023-04-03T02:49:44;5.60;;;1.90;;
78209;SDS011;67485;48.816;9.930;2023-04-03T02:52:12;4.18;;;1.90;;
78209;SDS011;67485;48.816;9.930;2023-04-03T02:54:38;2.30;;;1.35;;
78209;SDS011;67485;48.816;9.930;2023-04-03T02:57:07;4.47;;;1.60;;
78209;SDS011;67485;48.816;9.930;2023-04-03T02:59:36;4.70;;;2.03;;
78209;SDS011;67485;48.816;9.930;2023-04-03T03:02:03;4.55;;;1.58;;
78209;SDS011;67485;48.816;9.930;2023-04-03T03:04:28;4.90;;;1.70;;
78209;SDS011;67485;48.816;9.930;2023-04-03T03:06:55;3.45;;;1.52;;
78209;SDS011;67485;48.816;9.930;2023-04-03T03:09:21;3.83;;;1.67;;
78209;SDS011;67485;48.816;9.930;2023-04-03T03:11:47;3.13;;;1.70;;
78209;SDS011;67485;48.816;9.930;2023-04-03T03:14:12;3.03;;;1.55;;
78209;SDS011;67485;48.816;9.930;2023-04-03T03:16:38;3.27;;;1.60;;
78209;SDS011;67485;48.816;9.930;2023-04-03T03:19:03;3.43;;;1.50;;
78209;SDS011;67485;48.816;9.930;2023-04-03T03:21:30;3.03;;;1.52;;
78209;SDS011;67485;48.816;9.930;2023-04-03T03:23:55;5.35;;;1.42;;
78209;SDS011;67485;48.816;9.930;2023-04-03T03:26:21;3.07;;;1.80;;
78209;SDS011;67485;48.816;9.930;2023-04-03T03:28:46;2.97;;;1.70;;
78209;SDS011;67485;48.816;9.930;2023-04-03T03:31:12;3.63;;;1.67;;
78209;SDS011;67485;48.816;9.930;2023-04-03T03:33:40;2.90;;;1.60;;
78209;SDS011;67485;48.816;9.930;2023-04-03T03:36:06;5.20;;;1.80;;
78209;SDS011;67485;48.816;9.930;2023-04-03T03:38:32;4.47;;;1.80;;
78209;SDS011;67485;48.816;9.930;2023-04-03T03:40:59;3.38;;;1.88;;
78209;SDS011;67485;48.816;9.930;2023-04-03T03:43:25;2.80;;;1.60;;
78209;SDS011;67485;48.816;9.930;2023-04-03T03:45:53;3.80;;;1.80;;
78209;SDS011;67485;48.816;9.930;2023-04-03T03:48:19;3.25;;;1.60;;
78209;SDS011;67485;48.816;9.930;2023-04-03T03:50:46;2.85;;;1.70;;
78209;SDS011;67485;48.816;9.930;2023-04-03T03:53:12;3.38;;;1.58;;
78209;SDS011;67485;48.816;9.930;2023-04-03T03:55:39;4.30;;;1.83;;
78209;SDS011;67485;48.816;9.930;2023-04-03T03:58:05;3.83;;;1.70;;
78209;SDS011;67485;48.816;9.930;2023-04-03T04:00:32;2.67;;;1.63;;
78209;SDS011;67485;48.816;9.930;2023-04-03T04:02:58;3.72;;;1.58;;
78209;SDS011;67485;48.816;9.930;2023-04-03T04:05:25;4.78;;;1.50;;
78209;SDS011;67485;48.816;9.930;2023-04-03T04:07:52;2.87;;;1.43;;
78209;SDS011;67485;48.816;9.930;2023-04-03T04:10:18;3.97;;;1.45;;
78209;SDS011;67485;48.816;9.930;2023-04-03T04:12:44;3.08;;;1.50;;
78209;SDS011;67485;48.816;9.930;2023-04-03T04:15:11;3.38;;;1.48;;
78209;SDS011;67485;48.816;9.930;2023-04-03T04:17:37;4.45;;;1.52;;
78209;SDS011;67485;48.816;9.930;2023-04-03T04:20:05;4.88;;;1.60;;
78209;SDS011;67485;48.816;9.930;2023-04-03T04:22:32;3.25;;;1.80;;
78209;SDS011;67485;48.816;9.930;2023-04-03T04:24:58;3.25;;;1.45;;
78209;SDS011;67485;48.816;9.930;2023-04-03T04:27:24;2.80;;;1.50;;
78209;SDS011;67485;48.816;9.930;2023-04-03T04:29:50;2.97;;;1.47;;
78209;SDS011;67485;48.816;9.930;2023-04-03T04:32:16;2.35;;;1.40;;
78209;SDS011;67485;48.816;9.930;2023-04-03T04:34:42;3.63;;;1.93;;
78209;SDS011;67485;48.816;9.930;2023-04-03T04:37:08;4.97;;;1.80;;
78209;SDS011;67485;48.816;9.930;2023-04-03T04:39:34;3.53;;;1.73;;
78209;SDS011;67485;48.816;9.930;2023-04-03T04:42:00;4.50;;;1.60;;
78209;SDS011;67485;48.816;9.930;2023-04-03T04:44:29;3.60;;;1.83;;
78209;SDS011;67485;48.816;9.930;2023-04-03T04:46:55;5.63;;;1.80;;
78209;SDS011;67485;48.816;9.930;2023-04-03T04:49:20;3.40;;;1.37;;
78209;SDS011;67485;48.816;9.930;2023-04-03T04:51:46;2.40;;;1.20;;
78209;SDS011;67485;48.816;9.930;2023-04-03T04:54:13;3.13;;;1.55;;
78209;SDS011;67485;48.816;9.930;2023-04-03T04:56:39;3.28;;;1.60;;
78209;SDS011;67485;48.816;9.930;2023-04-03T04:59:05;2.43;;;1.33;;
78209;SDS011;67485;48.816;9.930;2023-04-03T05:01:30;3.45;;;1.60;;
78209;SDS011;67485;48.816;9.930;2023-04-03T05:04:03;3.03;;;1.33;;
78209;SDS011;67485;48.816;9.930;2023-04-03T05:06:30;2.72;;;1.60;;
78209;SDS011;67485;48.816;9.930;2023-04-03T05:08:57;3.60;;;1.50;;
78209;SDS011;67485;48.816;9.930;2023-04-03T05:11:24;2.33;;;1.27;;
78209;SDS011;67485;48.816;9.930;2023-04-03T05:13:50;2.90;;;1.50;;
78209;SDS011;67485;48.816;9.930;2023-04-03T05:16:16;2.80;;;1.23;;
78209;SDS011;67485;48.816;9.930;2023-04-03T05:18:42;3.37;;;1.60;;
78209;SDS011;67485;48.816;9.930;2023-04-03T05:21:14;3.53;;;1.63;;
78209;SDS011;67485;48.816;9.930;2023-04-03T05:23:40;2.10;;;1.40;;
78209;SDS011;67485;48.816;9.930;2023-04-03T05:26:05;3.50;;;1.50;;
78209;SDS011;67485;48.816;9.930;2023-04-03T05:28:31;2.65;;;1.33;;
78209;SDS011;67485;48.816;9.930;2023-04-03T05:30:58;4.28;;;1.30;;
78209;SDS011;67485;48.816;9.930;2023-04-03T05:33:29;3.23;;;1.40;;
78209;SDS011;67485;48.816;9.930;2023-04-03T05:35:57;2.53;;;1.40;;
78209;SDS011;67485;48.816;9.930;2023-04-03T05:38:28;3.35;;;1.65;;
78209;SDS011;67485;48.816;9.930;2023-04-03T05:40:55;3.88;;;1.48;;
78209;SDS011;67485;48.816;9.930;2023-04-03T05:43:20;2.20;;;1.37;;
78209;SDS011;67485;48.816;9.930;2023-04-03T05:45:47;4.45;;;1.38;;
78209;SDS011;67485;48.816;9.930;2023-04-03T05:48:14;4.80;;;1.60;;
78209;SDS011;67485;48.816;9.930;2023-04-03T05:50:39;3.23;;;1.30;;
78209;SDS011;67485;48.816;9.930;2023-04-03T05:53:12;2.63;;;1.40;;
78209;SDS011;67485;48.816;9.930;2023-04-03T05:55:44;4.13;;;1.48;;
78209;SDS011;67485;48.816;9.930;2023-04-03T05:58:09;2.88;;;1.50;;
78209;SDS011;67485;48.816;9.930;2023-04-03T06:00:35;3.75;;;1.35;;
78209;SDS011;67485;48.816;9.930;2023-04-03T06:03:02;3.70;;;1.27;;
78209;SDS011;67485;48.816;9.930;2023-04-03T06:05:28;3.30;;;1.83;;
78209;SDS011;67485;48.816;9.930;2023-04-03T06:07:53;2.50;;;1.30;;
78209;SDS011;67485;48.816;9.930;2023-04-03T06:10:19;4.57;;;1.33;;
78209;SDS011;67485;48.816;9.930;2023-04-03T06:12:45;2.70;;;1.30;;
78209;SDS011;67485;48.816;9.930;2023-04-03T06:15:11;4.80;;;1.60;;
78209;SDS011;67485;48.816;9.930;2023-04-03T06:17:39;4.05;;;1.30;;
78209;SDS011;67485;48.816;9.930;2023-04-03T06:20:05;2.83;;;1.40;;
78209;SDS011;67485;48.816;9.930;2023-04-03T06:22:31;4.90;;;1.58;;
78209;SDS011;67485;48.816;9.930;2023-04-03T06:24:57;3.60;;;1.65;;
78209;SDS011;67485;48.816;9.930;2023-04-03T06:27:23;4.82;;;1.50;;
78209;SDS011;67485;48.816;9.930;2023-04-03T06:29:49;3.00;;;1.42;;
78209;SDS011;67485;48.816;9.930;2023-04-03T06:32:15;3.50;;;1.02;;
78209;SDS011;67485;48.816;9.930;2023-04-03T06:34:41;3.08;;;1.40;;
78209;SDS011;67485;48.816;9.930;2023-04-03T06:37:16;3.58;;;1.27;;
78209;SDS011;67485;48.816;9.930;2023-04-03T06:39:44;3.25;;;1.30;;
78209;SDS011;67485;48.816;9.930;2023-04-03T06:42:10;3.90;;;1.52;;
78209;SDS011;67485;48.816;9.930;2023-04-03T06:44:45;3.30;;;1.45;;
78209;SDS011;67485;48.816;9.930;2023-04-03T06:47:11;3.42;;;1.70;;
78209;SDS011;67485;48.816;9.930;2023-04-03T06:49:37;5.22;;;1.67;;
78209;SDS011;67485;48.816;9.930;2023-04-03T06:52:03;4.18;;;1.77;;
78209;SDS011;67485;48.816;9.930;2023-04-03T06:54:30;3.70;;;1.70;;
78209;SDS011;67485;48.816;9.930;2023-04-03T06:56:57;5.07;;;1.70;;
78209;SDS011;67485;48.816;9.930;2023-04-03T06:59:23;3.87;;;1.50;;
78209;SDS011;67485;48.816;9.930;2023-04-03T07:01:49;4.70;;;1.83;;
78209;SDS011;67485;48.816;9.930;2023-04-03T07:04:15;3.35;;;1.55;;
78209;SDS011;67485;48.816;9.930;2023-04-03T07:06:41;3.67;;;1.90;;
78209;SDS011;67485;48.816;9.930;2023-04-03T07:09:08;4.35;;;1.95;;
78209;SDS011;67485;48.816;9.930;2023-04-03T07:11:34;3.47;;;1.73;;
78209;SDS011;67485;48.816;9.930;2023-04-03T07:14:01;4.22;;;1.83;;
78209;SDS011;67485;48.816;9.930;2023-04-03T07:16:27;4.35;;;1.73;;
78209;SDS011;67485;48.816;9.930;2023-04-03T07:18:52;3.08;;;1.60;;
78209;SDS011;67485;48.816;9.930;2023-04-03T07:21:18;5.20;;;1.90;;
78209;SDS011;67485;48.816;9.930;2023-04-03T07:23:44;5.45;;;1.70;;
78209;SDS011;67485;48.816;9.930;2023-04-03T07:26:10;2.83;;;1.60;;
78209;SDS011;67485;48.816;9.930;2023-04-03T07:28:36;7.87;;;1.77;;
78209;SDS011;67485;48.816;9.930;2023-04-03T07:31:03;4.00;;;1.88;;
78209;SDS011;67485;48.816;9.930;2023-04-03T07:33:36;6.70;;;1.90;;
78209;SDS011;67485;48.816;9.930;2023-04-03T07:36:02;6.53;;;2.17;;
78209;SDS011;67485;48.816;9.930;2023-04-03T07:38:28;4.40;;;1.80;;
78209;SDS011;67485;48.816;9.930;2023-04-03T07:40:54;4.63;;;1.40;;
78209;SDS011;67485;48.816;9.930;2023-04-03T07:43:20;6.03;;;1.90;;
78209;SDS011;67485;48.816;9.930;2023-04-03T07:45:46;3.50;;;1.80;;
78209;SDS011;67485;48.816;9.930;2023-04-03T07:48:16;5.72;;;1.90;;
78209;SDS011;67485;48.816;9.930;2023-04-03T07:50:50;3.65;;;1.60;;
78209;SDS011;67485;48.816;9.930;2023-04-03T07:53:15;5.03;;;1.80;;
78209;SDS011;67485;48.816;9.930;2023-04-03T07:55:41;4.15;;;1.88;;
78209;SDS011;67485;48.816;9.930;2023-04-03T07:58:10;6.95;;;1.90;;
78209;SDS011;67485;48.816;9.930;2023-04-03T08:00:37;5.60;;;1.90;;
78209;SDS011;67485;48.816;9.930;2023-04-03T08:03:03;6.05;;;2.15;;
78209;SDS011;67485;48.816;9.930;2023-04-03T08:05:30;8.38;;;1.45;;
78209;SDS011;67485;48.816;9.930;2023-04-03T08:07:55;6.00;;;1.80;;
78209;SDS011;67485;48.816;9.930;2023-04-03T08:10:21;3.83;;;1.70;;
78209;SDS011;67485;48.816;9.930;2023-04-03T08:12:47;3.73;;;1.60;;
78209;SDS011;67485;48.816;9.930;2023-04-03T08:15:13;3.60;;;1.83;;
78209;SDS011;67485;48.816;9.930;2023-04-03T08:17:39;3.90;;;1.73;;
78209;SDS011;67485;48.816;9.930;2023-04-03T08:20:05;5.43;;;1.80;;
78209;SDS011;67485;48.816;9.930;2023-04-03T08:22:33;8.75;;;1.90;;
78209;SDS011;67485;48.816;9.930;2023-04-03T08:24:59;4.32;;;1.90;;
78209;SDS011;67485;48.816;9.930;2023-04-03T08:27:26;4.95;;;1.83;;
78209;SDS011;67485;48.816;9.930;2023-04-03T08:29:54;4.97;;;2.03;;
78209;SDS011;67485;48.816;9.930;2023-04-03T08:32:20;4.63;;;1.60;;
78209;SDS011;67485;48.816;9.930;2023-04-03T08:34:45;5.65;;;1.77;;
78209;SDS011;67485;48.816;9.930;2023-04-03T08:37:12;5.13;;;1.60;;
78209;SDS011;67485;48.816;9.930;2023-04-03T08:39:37;5.23;;;1.63;;
78209;SDS011;67485;48.816;9.930;2023-04-03T08:42:05;3.38;;;1.65;;
78209;SDS011;67485;48.816;9.930;2023-04-03T08:44:52;5.85;;;1.52;;
78209;SDS011;67485;48.816;9.930;2023-04-03T08:50:13;4.20;;;1.77;;
78209;SDS011;67485;48.816;9.930;2023-04-03T08:52:43;3.97;;;1.83;;
78209;SDS011;67485;48.816;9.930;2023-04-03T08:57:48;4.25;;;1.70;;
78209;SDS011;67485;48.816;9.930;2023-04-03T09:00:22;4.17;;;2.30;;
78209;SDS011;67485;48.816;9.930;2023-04-03T09:02:51;5.05;;;1.88;;
78209;SDS011;67485;48.816;9.930;2023-04-03T09:05:28;3.53;;;1.70;;
78209;SDS011;67485;48.816;9.930;2023-04-03T09:07:57;5.38;;;1.95;;
78209;SDS011;67485;48.816;9.930;2023-04-03T09:10:30;5.80;;;1.60;;
78209;SDS011;67485;48.816;9.930;2023-04-03T09:13:05;4.20;;;1.80;;
78209;SDS011;67485;48.816;9.930;2023-04-03T09:15:39;5.50;;;1.90;;
78209;SDS011;67485;48.816;9.930;2023-04-03T09:18:13;5.55;;;1.60;;
78209;SDS011;67485;48.816;9.930;2023-04-03T09:28:49;4.00;;;1.55;;
78209;SDS011;67485;48.816;9.930;2023-04-03T09:33:47;3.23;;;1.37;;
78209;SDS011;67485;48.816;9.930;2023-04-03T09:36:36;4.00;;;1.55;;
78209;SDS011;67485;48.816;9.930;2023-04-03T09:39:19;3.67;;;1.25;;
78209;SDS011;67485;48.816;9.930;2023-04-03T09:41:54;3.23;;;1.40;;
78209;SDS011;67485;48.816;9.930;2023-04-03T09:44:30;3.35;;;1.50;;
78209;SDS011;67485;48.816;9.930;2023-04-03T09:52:38;4.40;;;1.40;;
78209;SDS011;67485;48.816;9.930;2023-04-03T09:55:08;3.50;;;1.60;;
78209;SDS011;67485;48.816;9.930;2023-04-03T09:57:39;3.50;;;1.40;;
78209;SDS011;67485;48.816;9.930;2023-04-03T10:00:06;2.53;;;1.10;;
78209;SDS011;67485;48.816;9.930;2023-04-03T10:02:49;3.58;;;1.27;;
78209;SDS011;67485;48.816;9.930;2023-04-03T10:05:28;3.90;;;1.30;;
78209;SDS011;67485;48.816;9.930;2023-04-03T10:08:08;3.40;;;1.25;;
78209;SDS011;67485;48.816;9.930;2023-04-03T10:10:36;3.85;;;1.20;;
78209;SDS011;67485;48.816;9.930;2023-04-03T10:13:03;4.65;;;1.10;;
78209;SDS011;67485;48.816;9.930;2023-04-03T10:15:48;3.47;;;1.40;;
78209;SDS011;67485;48.816;9.930;2023-04-03T10:24:44;4.37;;;1.33;;
78209;SDS011;67485;48.816;9.930;2023-04-03T10:27:42;2.50;;;1.05;;
78209;SDS011;67485;48.816;9.930;2023-04-03T10:33:39;5.05;;;1.10;;
78209;SDS011;67485;48.816;9.930;2023-04-03T10:36:37;4.30;;;1.43;;
78209;SDS011;67485;48.816;9.930;2023-04-03T10:58:44;2.75;;;0.80;;
78209;SDS011;67485;48.816;9.930;2023-04-03T11:01:13;2.65;;;1.00;;
78209;SDS011;67485;48.816;9.930;2023-04-03T11:03:48;3.67;;;1.00;;
78209;SDS011;67485;48.816;9.930;2023-04-03T11:06:18;3.03;;;1.25;;
78209;SDS011;67485;48.816;9.930;2023-04-03T11:09:00;3.72;;;1.00;;
78209;SDS011;67485;48.816;9.930;2023-04-03T11:11:31;2.40;;;1.00;;
78209;SDS011;67485;48.816;9.930;2023-04-03T11:16:37;3.03;;;1.10;;
78209;SDS011;67485;48.816;9.930;2023-04-03T11:19:13;2.67;;;1.10;;
78209;SDS011;67485;48.816;9.930;2023-04-03T11:24:51;3.00;;;1.45;;
78209;SDS011;67485;48.816;9.930;2023-04-03T11:27:35;2.47;;;1.10;;
78209;SDS011;67485;48.816;9.930;2023-04-03T11:30:32;5.13;;;1.40;;
78209;SDS011;67485;48.816;9.930;2023-04-03T11:35:57;2.90;;;1.15;;
78209;SDS011;67485;48.816;9.930;2023-04-03T11:38:32;2.58;;;0.90;;
78209;SDS011;67485;48.816;9.930;2023-04-03T11:41:05;3.25;;;1.23;;
78209;SDS011;67485;48.816;9.930;2023-04-03T11:43:33;2.53;;;1.20;;
78209;SDS011;67485;48.816;9.930;2023-04-03T11:46:05;2.20;;;1.00;;
78209;SDS011;67485;48.816;9.930;2023-04-03T11:51:01;2.88;;;1.08;;
78209;SDS011;67485;48.816;9.930;2023-04-03T11:53:39;3.40;;;1.15;;
78209;SDS011;67485;48.816;9.930;2023-04-03T12:01:42;2.55;;;1.00;;
78209;SDS011;67485;48.816;9.930;2023-04-03T12:04:11;2.70;;;1.02;;
78209;SDS011;67485;48.816;9.930;2023-04-03T12:10:14;4.63;;;1.40;;
78209;SDS011;67485;48.816;9.930;2023-04-03T12:14:47;4.55;;;1.27;;
78209;SDS011;67485;48.816;9.930;2023-04-03T12:17:19;4.03;;;1.23;;
78209;SDS011;67485;48.816;9.930;2023-04-03T12:19:52;3.15;;;1.10;;
78209;SDS011;67485;48.816;9.930;2023-04-03T12:22:18;3.13;;;1.03;;
78209;SDS011;67485;48.816;9.930;2023-04-03T12:24:49;2.70;;;1.10;;
78209;SDS011;67485;48.816;9.930;2023-04-03T12:29:59;2.58;;;1.02;;
78209;SDS011;67485;48.816;9.930;2023-04-03T12:37:43;3.20;;;1.20;;
78209;SDS011;67485;48.816;9.930;2023-04-03T12:40:39;3.90;;;1.38;;
78209;SDS011;67485;48.816;9.930;2023-04-03T12:51:14;3.78;;;1.10;;
78209;SDS011;67485;48.816;9.930;2023-04-03T12:53:43;4.30;;;1.20;;
78209;SDS011;67485;48.816;9.930;2023-04-03T12:56:29;3.65;;;1.52;;
78209;SDS011;67485;48.816;9.930;2023-04-03T12:59:42;4.33;;;1.40;;
78209;SDS011;67485;48.816;9.930;2023-04-03T13:01:59;3.60;;;1.60;;
78209;SDS011;67485;48.816;9.930;2023-04-03T13:04:30;2.90;;;1.20;;
78209;SDS011;67485;48.816;9.930;2023-04-03T13:06:57;3.03;;;1.40;;
78209;SDS011;67485;48.816;9.930;2023-04-03T13:09:27;4.53;;;1.30;;
78209;SDS011;67485;48.816;9.930;2023-04-03T13:12:09;3.37;;;1.30;;
78209;SDS011;67485;48.816;9.930;2023-04-03T13:14:38;3.17;;;1.10;;
78209;SDS011;67485;48.816;9.930;2023-04-03T13:17:11;2.63;;;1.17;;
78209;SDS011;67485;48.816;9.930;2023-04-03T13:19:40;5.03;;;1.30;;
78209;SDS011;67485;48.816;9.930;2023-04-03T13:22:27;2.93;;;1.07;;
78209;SDS011;67485;48.816;9.930;2023-04-03T13:25:05;2.50;;;1.20;;
78209;SDS011;67485;48.816;9.930;2023-04-03T13:27:34;3.22;;;1.20;;
78209;SDS011;67485;48.816;9.930;2023-04-03T13:30:01;2.95;;;1.20;;
78209;SDS011;67485;48.816;9.930;2023-04-03T13:32:29;2.83;;;1.30;;
78209;SDS011;67485;48.816;9.930;2023-04-03T13:34:56;2.30;;;1.20;;
78209;SDS011;67485;48.816;9.930;2023-04-03T13:37:24;3.92;;;1.30;;
78209;SDS011;67485;48.816;9.930;2023-04-03T13:42:27;4.93;;;2.05;;
78209;SDS011;67485;48.816;9.930;2023-04-03T13:47:54;8.83;;;2.10;;
78209;SDS011;67485;48.816;9.930;2023-04-03T13:50:57;3.90;;;1.60;;
78209;SDS011;67485;48.816;9.930;2023-04-03T13:53:30;4.30;;;1.20;;
78209;SDS011;67485;48.816;9.930;2023-04-03T13:56:07;3.83;;;1.15;;
78209;SDS011;67485;48.816;9.930;2023-04-03T13:58:36;3.00;;;1.25;;
78209;SDS011;67485;48.816;9.930;2023-04-03T14:03:40;2.88;;;1.10;;
78209;SDS011;67485;48.816;9.930;2023-04-03T14:06:14;3.65;;;1.30;;
78209;SDS011;67485;48.816;9.930;2023-04-03T14:08:42;2.40;;;1.20;;
78209;SDS011;67485;48.816;9.930;2023-04-03T14:11:30;3.47;;;1.27;;
78209;SDS011;67485;48.816;9.930;2023-04-03T14:13:57;3.20;;;1.20;;
78209;SDS011;67485;48.816;9.930;2023-04-03T14:16:27;2.78;;;1.23;;
78209;SDS011;67485;48.816;9.930;2023-04-03T14:18:56;3.22;;;0.93;;
78209;SDS011;67485;48.816;9.930;2023-04-03T14:21:22;3.22;;;1.10;;
78209;SDS011;67485;48.816;9.930;2023-04-03T14:23:48;2.85;;;1.20;;
78209;SDS011;67485;48.816;9.930;2023-04-03T14:26:16;5.33;;;1.37;;
78209;SDS011;67485;48.816;9.930;2023-04-03T14:28:45;4.03;;;1.30;;
78209;SDS011;67485;48.816;9.930;2023-04-03T14:31:12;3.20;;;1.50;;
78209;SDS011;67485;48.816;9.930;2023-04-03T14:33:39;3.38;;;1.25;;
78209;SDS011;67485;48.816;9.930;2023-04-03T14:36:10;2.55;;;1.00;;
78209;SDS011;67485;48.816;9.930;2023-04-03T14:38:38;3.00;;;1.33;;
78209;SDS011;67485;48.816;9.930;2023-04-03T14:41:04;2.55;;;1.10;;
78209;SDS011;67485;48.816;9.930;2023-04-03T14:43:30;3.07;;;1.20;;
78209;SDS011;67485;48.816;9.930;2023-04-03T14:45:55;1.97;;;0.93;;
78209;SDS011;67485;48.816;9.930;2023-04-03T14:48:23;2.72;;;1.20;;
78209;SDS011;67485;48.816;9.930;2023-04-03T14:50:51;3.88;;;1.05;;
78209;SDS011;67485;48.816;9.930;2023-04-03T14:53:18;2.53;;;1.17;;
78209;SDS011;67485;48.816;9.930;2023-04-03T14:55:48;3.47;;;1.10;;
78209;SDS011;67485;48.816;9.930;2023-04-03T14:58:15;7.60;;;1.25;;
78209;SDS011;67485;48.816;9.930;2023-04-03T15:00:43;2.85;;;1.15;;
78209;SDS011;67485;48.816;9.930;2023-04-03T15:03:14;3.75;;;1.13;;
78209;SDS011;67485;48.816;9.930;2023-04-03T15:05:42;4.88;;;1.15;;
78209;SDS011;67485;48.816;9.930;2023-04-03T15:08:20;3.73;;;1.27;;
78209;SDS011;67485;48.816;9.930;2023-04-03T15:10:49;2.97;;;1.30;;
78209;SDS011;67485;48.816;9.930;2023-04-03T15:13:18;2.78;;;1.20;;
78209;SDS011;67485;48.816;9.930;2023-04-03T15:15:44;4.68;;;1.50;;
78209;SDS011;67485;48.816;9.930;2023-04-03T15:18:21;2.22;;;1.00;;
78209;SDS011;67485;48.816;9.930;2023-04-03T15:20:51;2.77;;;1.30;;
78209;SDS011;67485;48.816;9.930;2023-04-03T15:23:17;3.08;;;1.20;;
78209;SDS011;67485;48.816;9.930;2023-04-03T15:25:47;2.60;;;1.35;;
78209;SDS011;67485;48.816;9.930;2023-04-03T15:31:02;3.78;;;1.45;;
78209;SDS011;67485;48.816;9.930;2023-04-03T15:33:29;4.93;;;1.50;;
78209;SDS011;67485;48.816;9.930;2023-04-03T15:35:55;2.78;;;1.10;;
78209;SDS011;67485;48.816;9.930;2023-04-03T15:38:21;3.25;;;1.30;;
78209;SDS011;67485;48.816;9.930;2023-04-03T15:40:47;2.40;;;1.20;;
78209;SDS011;67485;48.816;9.930;2023-04-03T15:43:13;3.78;;;1.10;;
78209;SDS011;67485;48.816;9.930;2023-04-03T15:45:40;3.58;;;1.17;;
78209;SDS011;67485;48.816;9.930;2023-04-03T15:48:06;2.53;;;1.10;;
78209;SDS011;67485;48.816;9.930;2023-04-03T15:50:33;2.00;;;0.90;;
78209;SDS011;67485;48.816;9.930;2023-04-03T15:52:59;3.15;;;1.17;;
78209;SDS011;67485;48.816;9.930;2023-04-03T15:55:27;5.55;;;1.40;;
78209;SDS011;67485;48.816;9.930;2023-04-03T15:57:54;5.15;;;1.25;;
78209;SDS011;67485;48.816;9.930;2023-04-03T16:00:21;2.90;;;1.30;;
78209;SDS011;67485;48.816;9.930;2023-04-03T16:02:48;3.97;;;1.40;;
78209;SDS011;67485;48.816;9.930;2023-04-03T16:05:21;2.72;;;1.50;;
78209;SDS011;67485;48.816;9.930;2023-04-03T16:07:47;4.30;;;1.20;;
78209;SDS011;67485;48.816;9.930;2023-04-03T16:10:14;3.90;;;1.55;;
78209;SDS011;67485;48.816;9.930;2023-04-03T16:12:41;5.30;;;1.60;;
78209;SDS011;67485;48.816;9.930;2023-04-03T16:15:07;2.90;;;1.33;;
78209;SDS011;67485;48.816;9.930;2023-04-03T16:17:33;3.47;;;1.52;;
78209;SDS011;67485;48.816;9.930;2023-04-03T16:20:00;5.70;;;1.92;;
78209;SDS011;67485;48.816;9.930;2023-04-03T16:22:27;3.60;;;1.60;;
78209;SDS011;67485;48.816;9.930;2023-04-03T16:24:54;3.22;;;1.38;;
78209;SDS011;67485;48.816;9.930;2023-04-03T16:27:21;4.97;;;1.35;;
78209;SDS011;67485;48.816;9.930;2023-04-03T16:29:47;3.58;;;1.50;;
78209;SDS011;67485;48.816;9.930;2023-04-03T16:32:13;4.60;;;2.10;;
78209;SDS011;67485;48.816;9.930;2023-04-03T16:34:39;4.80;;;1.88;;
78209;SDS011;67485;48.816;9.930;2023-04-03T16:37:06;5.40;;;1.60;;
78209;SDS011;67485;48.816;9.930;2023-04-03T16:39:34;3.40;;;1.50;;
78209;SDS011;67485;48.816;9.930;2023-04-03T16:42:00;3.10;;;1.38;;
78209;SDS011;67485;48.816;9.930;2023-04-03T16:44:26;5.78;;;1.33;;